Thursday, May 24, 2018, 1:57 PM EDT
Back to Local

KMVL, Morrisville Stowe State Airport

Location: Morrisville, VT, United States Lat: 44.533
Local Time: 1:57 PM EDT (17:57 GMT) Lon: -72.617
Time Zone: US/Eastern Elev: 731 ft

Show me the last for .
Show Decoded

2018-05-24 12:54 METAR KMVL 241654Z AUTO 02011KT 10SM CLR 18/01 A3013 RMK AO2 SLP206 T01780011 =
2018-05-24 11:54 METAR KMVL 241554Z AUTO 01012KT 10SM CLR 17/M01 A3015 RMK AO2 SLP213 T01671006 =
2018-05-24 10:54 METAR KMVL 241454Z AUTO 35012KT 10SM BKN075 16/M01 A3017 RMK AO2 SLP218
                 T01561006 51008 =
2018-05-24 09:54 METAR KMVL 241354Z AUTO 36006KT 10SM OVC075 13/01 A3016 RMK AO2 SLP217 T01280006
                 =
2018-05-24 08:54 METAR KMVL 241254Z AUTO 36006KT 10SM OVC090 13/02 A3016 RMK AO2 SLP215 T01330022
                 =
2018-05-24 07:54 METAR KMVL 241154Z AUTO 00000KT 10SM OVC090 10/06 A3014 RMK AO2 SLP209 T01000061
                 10100 20033 51021 =
2018-05-24 06:54 METAR KMVL 241054Z AUTO 00000KT 10SM BKN100 07/05 A3012 RMK AO2 SLP203 T00720050
                 =
2018-05-24 05:54 METAR KMVL 240954Z AUTO 00000KT 10SM CLR 05/04 A3010 RMK AO2 SLP196 T00500044 $
                 =
2018-05-24 05:42 METAR KMVL 240942Z AUTO VRB03KT 3SM BR CLR 04/04 A3009 RMK AO2 T00440039 $ =
2018-05-24 05:32 METAR KMVL 240932Z AUTO 00000KT 1 3/4SM BR CLR 03/03 A3009 RMK AO2 T00330033 =
2018-05-24 04:54 METAR KMVL 240854Z AUTO 22003KT 10SM CLR 04/04 A3008 RMK AO2 SLP188 T00390039
                 53017 =
2018-05-24 03:54 METAR KMVL 240754Z AUTO 18003KT 10SM CLR 04/04 A3006 RMK AO2 SLP181 T00440044 =
2018-05-24 02:54 METAR KMVL 240654Z AUTO 00000KT 3SM BR CLR 04/04 A3004 RMK AO2 SLP175 T00390039
                 =
2018-05-24 01:54 METAR KMVL 240554Z AUTO 00000KT 10SM CLR 04/04 A3003 RMK AO2 SLP170 T00440044
                 10183 20044 51010 =
2018-05-24 00:54 METAR KMVL 240454Z AUTO 00000KT 10SM CLR 06/06 A3002 RMK AO2 SLP169 T00610056
                 402220061 =
2018-05-23 23:54 METAR KMVL 240354Z AUTO 00000KT 10SM CLR 07/07 A3001 RMK AO2 SLP164 T00720067 =
2018-05-23 22:54 METAR KMVL 240254Z AUTO 20003KT 10SM CLR 08/07 A3000 RMK AO2 SLP160 T00830067
                 51014 =
2018-05-23 21:54 METAR KMVL 240154Z AUTO 00000KT 10SM CLR 11/07 A2998 RMK AO2 SLP155 T01060067 =
2018-05-23 20:54 METAR KMVL 240054Z AUTO 25004KT 10SM CLR 16/06 A2997 RMK AO2 SLP149 T01560056 =
2018-05-23 19:54 METAR KMVL 232354Z AUTO 27004KT 10SM CLR 18/07 A2996 RMK AO2 SLP145 T01780072
                 10217 20161 53012 =
2018-05-23 18:54 METAR KMVL 232254Z AUTO 32004KT 10SM SCT070 BKN085 21/09 A2993 RMK AO2 SLP137
                 T02060094 =
2018-05-23 17:54 METAR KMVL 232154Z AUTO 35010G15KT 10SM SCT060 BKN075 21/11 A2992 RMK AO2 SLP134
                 T02110106 =
2018-05-23 16:54 METAR KMVL 232054Z AUTO 36007G14KT 10SM SCT060 BKN075 20/11 A2992 RMK AO2 SLP132
                 T02000111 51006 =
2018-05-23 15:54 METAR KMVL 231954Z AUTO 01012KT 10SM BKN050 BKN060 21/11 A2992 RMK AO2 SLP131
                 T02060111 =
2018-05-23 14:54 METAR KMVL 231854Z AUTO 35010G17KT 10SM FEW046 BKN055 21/11 A2992 RMK AO2 SLP132
                 T02060111 =

Support USWX by starting your Amazon purchase here.